Time;durP1;ratioP1;P1;durP2;ratioP2;P2;SDS_P1;SDS_P2;PMS_P1;PMS_P2;Temp;Humidity;BMP_temperature;BMP_pressure;BME280_temperature;BME280_humidity;BME280_pressure;Samples;Min_cycle;Max_cycle;Signal;HPM_P1;HPM_P2
2024/01/14 00:00:33;;;;;;;3.65;3.08;;;;;;;1.16;100.00;97894.03;15289626;19;20078;-48
2024/01/14 00:05:59;;;;;;;2.70;2.50;;;;;;;1.16;100.00;97878.13;15290142;19;20019;-46
2024/01/14 00:11:26;;;;;;;3.08;2.85;;;;;;;1.17;100.00;97885.13;15285787;19;20030;-47
2024/01/14 00:16:51;;;;;;;2.63;2.42;;;;;;;1.19;100.00;97879.69;15294589;19;20094;-49
2024/01/14 00:22:16;;;;;;;2.95;2.67;;;;;;;1.20;100.00;97862.81;15290589;19;20014;-48
2024/01/14 00:27:44;;;;;;;2.80;2.60;;;;;;;1.22;100.00;97850.28;15291518;19;20021;-48
2024/01/14 00:33:08;;;;;;;3.50;3.20;;;;;;;1.26;100.00;97856.19;15036902;19;5001050;-48
2024/01/14 00:38:40;;;;;;;2.70;2.50;;;;;;;1.26;100.00;97856.19;15286531;19;20094;-50
2024/01/14 00:44:08;;;;;;;3.42;2.97;;;;;;;1.28;100.00;97854.28;15283463;19;20471;-47
2024/01/14 00:49:32;;;;;;;3.22;2.92;;;;;;;1.27;100.00;97834.00;15292726;19;20029;-47
2024/01/14 00:54:57;;;;;;;3.80;3.45;;;;;;;1.30;100.00;97841.75;15289181;19;20035;-47
2024/01/14 01:00:26;;;;;;;3.22;2.95;;;;;;;1.28;100.00;97833.06;15282829;19;20046;-47
2024/01/14 01:05:54;;;;;;;3.45;3.10;;;;;;;1.30;100.00;97825.81;15284967;19;20037;-47
2024/01/14 01:11:18;;;;;;;3.65;3.25;;;;;;;1.28;100.00;97817.13;15286976;19;20468;-48
2024/01/14 01:16:46;;;;;;;3.70;3.40;;;;;;;1.32;100.00;97818.59;15282764;19;20355;-48
2024/01/14 01:22:12;;;;;;;3.80;3.40;;;;;;;1.31;100.00;97819.56;15289471;19;20044;-47
2024/01/14 01:27:37;;;;;;;3.22;2.92;;;;;;;1.32;100.00;97805.31;15289460;19;20021;-48
2024/01/14 01:33:04;;;;;;;3.65;3.35;;;;;;;1.33;100.00;97805.19;15290591;19;20029;-47
2024/01/14 01:38:35;;;;;;;3.63;3.33;;;;;;;1.30;100.00;97810.72;15286839;19;20058;-47
2024/01/14 01:44:00;;;;;;;4.05;3.65;;;;;;;1.29;100.00;97802.91;15289013;19;20097;-46
2024/01/14 01:49:27;;;;;;;3.65;3.35;;;;;;;1.25;100.00;97794.34;15285546;19;20081;-46
2024/01/14 01:54:54;;;;;;;4.20;3.80;;;;;;;1.22;100.00;97794.56;15289006;19;20013;-47
2024/01/14 02:00:21;;;;;;;3.80;3.50;;;;;;;1.22;100.00;97787.47;15287401;19;20467;-47
2024/01/14 02:05:54;;;;;;;4.30;3.72;;;;;;;1.18;100.00;97778.03;15284867;19;20070;-48
2024/01/14 02:11:18;;;;;;;4.20;3.90;;;;;;;1.19;100.00;97771.78;15285944;19;20025;-49
2024/01/14 02:16:43;;;;;;;4.60;3.45;;;;;;;1.20;100.00;97762.84;15285710;19;20092;-48
2024/01/14 02:22:16;;;;;;;4.07;3.67;;;;;;;1.20;100.00;97762.84;15280539;19;20015;-48
2024/01/14 02:27:44;;;;;;;4.97;3.95;;;;;;;1.19;100.00;97755.00;15284025;19;20015;-47
2024/01/14 02:33:08;;;;;;;3.97;3.58;;;;;;;1.19;100.00;97726.66;15284149;19;20029;-46
2024/01/14 02:38:39;;;;;;;3.60;3.30;;;;;;;1.12;100.00;97712.16;15282296;19;20022;-46
2024/01/14 02:44:07;;;;;;;4.25;3.85;;;;;;;1.04;100.00;97711.94;15284930;19;20024;-47
2024/01/14 02:49:31;;;;;;;4.30;3.90;;;;;;;0.89;100.00;97712.16;15287284;19;20074;-47
2024/01/14 02:54:56;;;;;;;4.03;3.70;;;;;;;0.88;100.00;97707.78;15279091;19;20078;-49
2024/01/14 03:00:24;;;;;;;4.03;3.63;;;;;;;0.82;100.00;97705.63;15278938;19;20355;-47
2024/01/14 03:05:49;;;;;;;4.40;4.00;;;;;;;0.79;100.00;97702.38;15281183;19;20015;-47
2024/01/14 03:11:13;;;;;;;4.80;4.03;;;;;;;0.80;100.00;97691.66;15297381;19;20539;-49
2024/01/14 03:16:41;;;;;;;4.55;4.13;;;;;;;0.75;100.00;97693.81;15295257;19;20026;-49
2024/01/14 03:22:05;;;;;;;5.63;4.35;;;;;;;0.75;100.00;97686.69;15294839;19;20036;-46
2024/01/14 03:27:30;;;;;;;4.35;3.95;;;;;;;0.76;100.00;97685.75;15294730;19;20101;-48
2024/01/14 03:32:57;;;;;;;4.80;4.32;;;;;;;0.82;100.00;97679.13;15297321;19;20032;-47
2024/01/14 03:38:28;;;;;;;5.00;3.95;;;;;;;0.86;100.00;97685.88;15291960;19;20026;-49
2024/01/14 03:43:53;;;;;;;4.68;3.92;;;;;;;0.90;100.00;97660.78;15293872;19;20503;-46
2024/01/14 03:49:20;;;;;;;4.10;3.70;;;;;;;0.93;100.00;97657.09;15297958;19;20023;-48
2024/01/14 03:54:45;;;;;;;4.60;4.20;;;;;;;0.90;100.00;97655.50;15294577;19;20036;-48
2024/01/14 04:00:10;;;;;;;4.90;4.40;;;;;;;0.87;100.00;97650.44;15295210;19;20042;-47
2024/01/14 04:05:38;;;;;;;4.32;3.90;;;;;;;0.87;100.00;97645.16;15293098;19;20414;-47
2024/01/14 04:11:02;;;;;;;4.55;4.13;;;;;;;0.92;100.00;97629.69;15293928;19;20019;-48
2024/01/14 04:16:27;;;;;;;3.85;3.45;;;;;;;1.00;100.00;97645.03;15286355;19;20553;-47
2024/01/14 04:21:54;;;;;;;4.30;3.90;;;;;;;1.01;100.00;97614.03;15288912;19;20409;-47
2024/01/14 04:27:19;;;;;;;3.83;3.40;;;;;;;0.97;100.00;97639.13;15287136;19;20024;-48
2024/01/14 04:32:44;;;;;;;3.92;3.60;;;;;;;1.01;100.00;97640.53;15295502;19;20050;-48
2024/01/14 04:38:12;;;;;;;4.03;3.60;;;;;;;1.02;100.00;97639.59;15292206;19;20811;-46
2024/01/14 04:43:38;;;;;;;4.55;3.90;;;;;;;1.05;100.00;97647.31;15293470;19;20022;-48
2024/01/14 04:49:03;;;;;;;5.68;3.92;;;;;;;1.06;100.00;97649.00;15293246;19;20018;-47
2024/01/14 04:54:31;;;;;;;3.80;3.40;;;;;;;1.05;100.00;97652.63;15291553;19;20867;-49
2024/01/14 04:59:55;;;;;;;5.20;4.05;;;;;;;1.06;100.00;97660.44;15287492;19;20018;-47
2024/01/14 05:05:20;;;;;;;4.45;3.60;;;;;;;1.06;100.00;97665.75;15289895;19;20020;-47
2024/01/14 05:10:47;;;;;;;3.80;3.40;;;;;;;1.07;100.00;97662.13;15276553;19;20028;-53
2024/01/14 05:16:13;;;;;;;4.13;3.72;;;;;;;1.06;100.00;97644.53;15274257;19;20018;-56
2024/01/14 05:21:37;;;;;;;3.60;3.30;;;;;;;1.09;100.00;97638.16;15288176;19;20041;-55
2024/01/14 05:27:04;;;;;;;4.68;3.85;;;;;;;1.05;100.00;97623.44;15286618;19;20023;-53
2024/01/14 05:32:29;;;;;;;4.43;3.75;;;;;;;1.02;100.00;97605.09;15282044;19;20077;-58
2024/01/14 05:37:53;;;;;;;5.13;3.85;;;;;;;1.00;100.00;97629.09;15279161;19;20495;-53
2024/01/14 05:43:21;;;;;;;4.07;3.67;;;;;;;0.97;100.00;97613.44;15276633;19;20471;-57
2024/01/14 05:48:45;;;;;;;5.35;4.30;;;;;;;1.00;100.00;97607.88;15280123;19;20036;-55
2024/01/14 05:54:10;;;;;;;4.53;4.10;;;;;;;1.00;100.00;97613.19;15286905;19;20690;-56
2024/01/14 05:59:38;;;;;;;4.50;3.67;;;;;;;0.95;100.00;97607.41;15289566;19;20552;-57
2024/01/14 06:05:02;;;;;;;4.00;3.45;;;;;;;0.94;100.00;97602.22;15283658;19;20021;-57
2024/01/14 06:10:26;;;;;;;4.65;3.97;;;;;;;0.97;100.00;97609.94;15289352;19;20022;-57
2024/01/14 06:15:54;;;;;;;4.25;3.80;;;;;;;0.99;100.00;97606.19;15289306;19;20027;-55
2024/01/14 06:21:18;;;;;;;4.10;3.70;;;;;;;1.01;100.00;97606.06;15284084;19;20018;-59
2024/01/14 06:26:44;;;;;;;4.28;3.50;;;;;;;1.04;100.00;97600.53;15280811;19;20013;-57
2024/01/14 06:32:14;;;;;;;3.47;2.85;;;;;;;1.07;100.00;97608.25;15283987;19;20038;-56
2024/01/14 06:37:40;;;;;;;3.97;3.58;;;;;;;1.10;100.00;97597.41;15283664;19;20039;-57
2024/01/14 06:43:05;;;;;;;3.70;3.30;;;;;;;1.09;100.00;97585.09;15287560;19;20376;-54
2024/01/14 06:48:32;;;;;;;4.50;3.40;;;;;;;1.08;100.00;97588.72;15302020;19;20015;-56
2024/01/14 06:53:57;;;;;;;4.03;3.63;;;;;;;1.06;100.00;97595.94;15301440;19;20018;-57
2024/01/14 06:59:23;;;;;;;4.60;3.88;;;;;;;1.02;100.00;97589.19;15299032;19;20471;-57
2024/01/14 07:04:51;;;;;;;4.63;3.53;;;;;;;1.04;100.00;97581.97;15302764;19;20015;-54
2024/01/14 07:10:22;;;;;;;3.97;3.47;;;;;;;1.04;100.00;97595.22;15293418;19;20025;-56
2024/01/14 07:15:46;;;;;;;3.65;3.10;;;;;;;1.04;100.00;97592.56;15301797;19;20489;-57
2024/01/14 07:21:20;;;;;;;3.50;3.20;;;;;;;1.08;100.00;97588.72;15298693;19;20039;-56
2024/01/14 07:26:45;;;;;;;3.45;3.15;;;;;;;1.12;100.00;97595.44;15284559;19;20010;-57
2024/01/14 07:32:10;;;;;;;4.13;3.50;;;;;;;1.09;100.00;97590.41;15289590;19;20042;-55
2024/01/14 07:37:38;;;;;;;3.83;3.50;;;;;;;1.10;100.00;97605.34;15292540;19;20032;-56
2024/01/14 07:43:03;;;;;;;4.65;3.20;;;;;;;1.11;100.00;97590.28;15287578;19;20022;-57
2024/01/14 07:48:28;;;;;;;3.47;3.17;;;;;;;1.10;100.00;97597.41;15272985;19;20003;-56
2024/01/14 07:53:56;;;;;;;3.92;2.95;;;;;;;1.11;100.00;97595.59;15298382;19;20023;-54
2024/01/14 07:59:23;;;;;;;3.00;2.70;;;;;;;1.23;100.00;97591.94;15291610;19;20016;-57
2024/01/14 08:04:48;;;;;;;3.08;2.78;;;;;;;1.28;100.00;97567.69;15296698;19;20078;-57
2024/01/14 08:10:16;;;;;;;2.80;2.58;;;;;;;1.32;100.00;97569.97;15291386;19;20017;-58
2024/01/14 08:15:41;;;;;;;3.40;2.47;;;;;;;1.36;100.00;97586.47;15291773;19;20078;-57
2024/01/14 08:21:20;;;;;;;2.83;2.63;;;;;;;1.44;100.00;97562.84;15291088;19;20090;-56
2024/01/14 08:26:54;;;;;;;3.70;2.92;;;;;;;1.48;100.00;97569.56;15296617;19;20420;-58
2024/01/14 08:32:20;;;;;;;2.75;2.50;;;;;;;1.50;100.00;97583.56;15288170;19;20047;-58
2024/01/14 08:37:46;;;;;;;3.08;2.67;;;;;;;1.52;100.00;97578.16;15292850;19;20014;-57
2024/01/14 08:43:14;;;;;;;3.65;2.80;;;;;;;1.54;100.00;97568.22;15291058;19;20024;-59
2024/01/14 08:48:39;;;;;;;4.20;3.20;;;;;;;1.54;100.00;97589.47;15290754;19;20042;-56
2024/01/14 08:54:03;;;;;;;4.35;3.17;;;;;;;1.54;100.00;97586.81;15290348;19;20027;-56
2024/01/14 08:59:31;;;;;;;3.10;2.80;;;;;;;1.56;100.00;97587.53;15289500;19;20402;-57
2024/01/14 09:04:55;;;;;;;4.00;3.10;;;;;;;1.58;100.00;97584.78;15288866;19;20015;-57
2024/01/14 09:10:20;;;;;;;3.67;2.72;;;;;;;1.57;100.00;97572.47;15287620;19;20074;-56
2024/01/14 09:15:47;;;;;;;3.45;2.90;;;;;;;1.52;100.00;97581.63;15295395;19;20065;-58
2024/01/14 09:21:13;;;;;;;4.20;2.83;;;;;;;1.50;100.00;97578.25;15285658;19;20018;-55
2024/01/14 09:26:38;;;;;;;3.85;2.90;;;;;;;1.51;100.00;97579.94;15292766;19;20365;-57
2024/01/14 09:32:05;;;;;;;3.03;2.65;;;;;;;1.52;100.00;97586.94;15291967;19;20022;-55
2024/01/14 09:37:29;;;;;;;4.50;2.97;;;;;;;1.54;100.00;97579.69;15293601;19;20018;-54
2024/01/14 09:42:57;;;;;;;3.72;2.90;;;;;;;1.53;100.00;97585.97;15287929;19;20016;-57
2024/01/14 09:48:25;;;;;;;3.55;2.50;;;;;;;1.58;100.00;97582.13;15285058;19;20074;-58
2024/01/14 09:53:50;;;;;;;3.08;2.78;;;;;;;1.62;100.00;97586.19;15285780;19;20020;-55
2024/01/14 09:59:19;;;;;;;2.90;2.58;;;;;;;1.67;100.00;97574.22;15283709;19;20529;-59
2024/01/14 10:04:48;;;;;;;2.78;2.58;;;;;;;1.69;100.00;97566.16;15286664;19;20101;-56
2024/01/14 10:10:12;;;;;;;2.90;2.30;;;;;;;1.69;100.00;97566.16;15284852;19;20028;-58
2024/01/14 10:15:37;;;;;;;4.45;2.70;;;;;;;1.67;100.00;97563.59;15285770;19;20018;-57
2024/01/14 10:21:15;;;;;;;2.60;2.30;;;;;;;1.65;100.00;97546.94;15295849;19;20477;-55
2024/01/14 10:26:40;;;;;;;3.67;2.80;;;;;;;1.64;100.00;97532.00;15305525;19;20039;-59
2024/01/14 10:32:04;;;;;;;2.50;2.10;;;;;;;1.72;100.00;97535.84;15297452;19;20053;-56
2024/01/14 10:37:32;;;;;;;3.60;2.60;;;;;;;1.81;100.00;97532.41;15302812;19;20014;-56
2024/01/14 10:42:57;;;;;;;2.40;2.13;;;;;;;1.93;100.00;97534.03;15297339;19;20024;-60
2024/01/14 10:48:23;;;;;;;3.42;2.20;;;;;;;2.04;100.00;97521.66;15295368;19;20350;-56
2024/01/14 10:54:01;;;;;;;2.88;2.10;;;;;;;2.09;100.00;97536.25;15294304;19;20459;-57
2024/01/14 10:59:31;;;;;;;2.97;2.15;;;;;;;2.13;100.00;97535.03;15294537;19;20017;-55
2024/01/14 11:04:56;;;;;;;2.30;2.10;;;;;;;2.13;100.00;97504.94;15293871;19;20036;-56
2024/01/14 11:10:24;;;;;;;2.30;1.95;;;;;;;2.09;100.00;97499.03;15299680;19;20816;-53
2024/01/14 11:15:56;;;;;;;2.63;2.30;;;;;;;2.09;100.00;97499.03;15300289;19;20015;-56
2024/01/14 11:21:44;;;;;;;2.63;1.83;;;;;;;2.11;100.00;97501.59;15291558;19;20038;-56
2024/01/14 11:27:32;;;;;;;2.42;2.20;;;;;;;2.07;100.00;97489.53;14529482;19;10000926;-57
2024/01/14 11:32:57;;;;;;;2.53;2.20;;;;;;;2.00;100.00;97479.41;15295254;19;20017;-52
2024/01/14 11:38:34;;;;;;;2.63;2.10;;;;;;;1.96;100.00;97466.53;15297279;19;20031;-54
2024/01/14 11:44:03;;;;;;;2.45;2.08;;;;;;;1.97;100.00;97453.13;15295242;19;20110;-55
2024/01/14 11:49:31;;;;;;;2.75;2.10;;;;;;;2.01;100.00;97443.06;15297083;19;20034;-53
2024/01/14 11:54:59;;;;;;;1.83;1.73;;;;;;;2.09;100.00;97435.28;15296631;19;20010;-58
2024/01/14 12:00:28;;;;;;;1.50;1.40;;;;;;;2.19;100.00;97439.78;15290825;19;20514;-58
2024/01/14 12:05:54;;;;;;;1.80;1.70;;;;;;;2.28;100.00;97420.41;14787135;19;10001112;-59
2024/01/14 12:11:19;;;;;;;1.70;1.55;;;;;;;2.37;100.00;97413.44;15295132;19;20098;-57
2024/01/14 12:16:48;;;;;;;1.92;1.80;;;;;;;2.37;100.00;97408.97;15295548;19;20015;-56
2024/01/14 12:22:12;;;;;;;2.20;1.92;;;;;;;2.39;100.00;97388.41;15292337;19;20054;-54
2024/01/14 12:27:37;;;;;;;2.05;1.70;;;;;;;2.40;100.00;97398.06;15294915;19;20017;-56
2024/01/14 12:33:12;;;;;;;2.00;1.80;;;;;;;2.40;100.00;97390.09;15282993;19;20098;-56
2024/01/14 12:38:37;;;;;;;2.38;1.60;;;;;;;2.39;100.00;97380.44;15289341;19;20029;-56
2024/01/14 12:44:02;;;;;;;2.00;1.80;;;;;;;2.42;100.00;97366.84;15289762;19;20748;-54
2024/01/14 12:49:30;;;;;;;2.70;2.40;;;;;;;2.43;100.00;97357.09;15293412;19;20094;-57
2024/01/14 12:54:54;;;;;;;2.15;1.95;;;;;;;2.38;100.00;97354.84;15296413;19;20038;-55
2024/01/14 13:00:21;;;;;;;2.13;1.92;;;;;;;2.33;100.00;97340.28;15293298;19;20015;-56
2024/01/14 13:05:49;;;;;;;2.35;2.15;;;;;;;2.24;100.00;97326.81;15285306;19;20007;-58
2024/01/14 13:11:14;;;;;;;3.05;2.20;;;;;;;2.21;100.00;97342.19;15301460;19;20097;-57
2024/01/14 13:16:38;;;;;;;2.55;2.15;;;;;;;2.18;100.00;97330.03;15301592;19;20010;-59
2024/01/14 13:22:14;;;;;;;1.80;1.70;;;;;;;2.25;100.00;97314.38;15290507;19;20086;-58
2024/01/14 13:27:38;;;;;;;1.85;1.70;;;;;;;2.25;100.00;97309.06;15290542;19;20020;-59
2024/01/14 13:33:03;;;;;;;1.90;1.70;;;;;;;2.23;100.00;97297.72;15284080;19;20070;-56
2024/01/14 13:38:30;;;;;;;2.28;2.03;;;;;;;2.27;100.00;97284.03;15286509;19;20097;-53
2024/01/14 13:43:55;;;;;;;2.25;1.90;;;;;;;2.27;100.00;97288.50;15288601;19;20519;-56
2024/01/14 13:49:24;;;;;;;2.22;1.95;;;;;;;2.19;100.00;97285.69;15288276;19;20018;-57
2024/01/14 13:54:51;;;;;;;2.50;1.98;;;;;;;2.11;100.00;97273.91;15285287;19;20015;-55
2024/01/14 14:00:16;;;;;;;2.10;1.90;;;;;;;2.06;100.00;97277.97;15285010;19;20033;-57
2024/01/14 14:05:41;;;;;;;2.33;2.13;;;;;;;1.98;100.00;97275.97;15284990;19;20082;-56
2024/01/14 14:11:14;;;;;;;2.20;2.00;;;;;;;1.91;100.00;97246.47;15280693;19;20010;-56
2024/01/14 14:16:39;;;;;;;2.22;2.03;;;;;;;1.89;100.00;97255.56;15288295;19;20019;-57
2024/01/14 14:22:03;;;;;;;2.38;2.00;;;;;;;1.82;100.00;97257.91;15285779;19;20027;-55
2024/01/14 14:27:31;;;;;;;2.30;2.08;;;;;;;1.78;100.00;97251.19;15286596;19;20018;-56
2024/01/14 14:32:55;;;;;;;2.63;2.28;;;;;;;1.73;100.00;97245.44;15282339;19;20014;-55
2024/01/14 14:38:20;;;;;;;2.53;2.10;;;;;;;1.69;100.00;97235.09;15285914;19;20017;-55
2024/01/14 14:43:40;;;;;;;2.42;2.20;;;;;;;1.60;100.00;97232.38;15277103;19;20687;-55
2024/01/14 14:49:06;;;;;;;3.30;2.50;;;;;;;1.53;100.00;97242.69;15284030;19;20117;-55
2024/01/14 14:54:32;;;;;;;4.25;3.70;;;;;;;1.49;100.00;97236.00;15285229;19;20020;-54
2024/01/14 14:59:59;;;;;;;6.90;5.28;;;;;;;1.32;100.00;97221.53;15284307;19;20018;-56
2024/01/14 15:05:24;;;;;;;6.32;5.28;;;;;;;1.16;100.00;97225.50;15283855;19;20024;-54
2024/01/14 15:10:48;;;;;;;6.32;5.72;;;;;;;1.04;100.00;97215.94;15291357;19;20082;-56
2024/01/14 15:16:16;;;;;;;6.55;5.55;;;;;;;0.92;100.00;97218.66;15295221;19;20015;-55
2024/01/14 15:21:42;;;;;;;5.90;5.07;;;;;;;0.87;100.00;97210.28;15295745;19;20007;-56
2024/01/14 15:27:09;;;;;;;6.47;5.13;;;;;;;0.84;100.00;97199.94;15295632;19;20628;-56
2024/01/14 15:32:36;;;;;;;6.50;5.18;;;;;;;0.82;100.00;97204.50;15268068;19;20041;-57
2024/01/14 15:38:01;;;;;;;6.70;5.43;;;;;;;0.77;100.00;97194.31;15297671;19;20383;-53
2024/01/14 15:43:26;;;;;;;6.65;5.47;;;;;;;0.76;100.00;97182.03;15290855;19;20078;-52
2024/01/14 15:48:55;;;;;;;6.38;5.55;;;;;;;0.76;100.00;97182.03;15291377;19;20043;-57
2024/01/14 15:54:20;;;;;;;7.47;6.00;;;;;;;0.75;100.00;97184.81;15293623;19;20019;-58
2024/01/14 15:59:44;;;;;;;7.80;6.22;;;;;;;0.73;100.00;97173.50;15293728;19;20233;-55
2024/01/14 16:05:12;;;;;;;9.48;7.05;;;;;;;0.73;100.00;97176.13;15289313;19;20023;-54
2024/01/14 16:10:37;;;;;;;9.40;7.80;;;;;;;0.67;100.00;97161.59;15295307;19;20098;-58
2024/01/14 16:16:16;;;;;;;10.00;8.05;;;;;;;0.65;100.00;97168.00;15286084;19;20364;-53
2024/01/14 16:21:43;;;;;;;8.00;6.85;;;;;;;0.60;100.00;97161.28;15290910;19;20466;-56
2024/01/14 16:27:08;;;;;;;7.80;6.97;;;;;;;0.58;100.00;97152.59;15293727;19;20013;-55
2024/01/14 16:32:32;;;;;;;9.60;7.20;;;;;;;0.53;100.00;97138.91;15291585;19;20016;-56
2024/01/14 16:37:59;;;;;;;9.50;7.30;;;;;;;0.53;100.00;97138.06;15295301;19;20077;-59
2024/01/14 16:43:25;;;;;;;9.40;7.18;;;;;;;0.52;100.00;97136.38;15286501;19;20026;-56
2024/01/14 16:48:51;;;;;;;9.88;6.90;;;;;;;0.53;100.00;97128.28;15287225;19;20011;-55
2024/01/14 16:54:19;;;;;;;10.40;8.10;;;;;;;0.52;100.00;97118.69;15291857;19;20487;-56
2024/01/14 16:59:43;;;;;;;9.88;7.65;;;;;;;0.54;100.00;97113.25;15291646;19;20019;-53
2024/01/14 17:05:09;;;;;;;7.93;6.38;;;;;;;0.55;100.00;97114.94;15287476;19;20018;-55
2024/01/14 17:10:37;;;;;;;8.55;6.45;;;;;;;0.53;100.00;97112.41;15290066;19;20017;-55
2024/01/14 17:16:27;;;;;;;9.98;7.40;;;;;;;0.53;100.00;97106.28;15287314;19;20021;-55
2024/01/14 17:21:52;;;;;;;7.68;6.43;;;;;;;0.50;100.00;97099.44;15283492;19;20054;-57
2024/01/14 17:27:19;;;;;;;8.88;7.07;;;;;;;0.49;100.00;97084.50;15280255;19;20031;-52
2024/01/14 17:32:45;;;;;;;8.75;6.55;;;;;;;0.50;100.00;97069.44;15287202;19;20131;-55
2024/01/14 17:38:09;;;;;;;8.90;6.50;;;;;;;0.49;100.00;97063.31;15289686;19;20086;-57
2024/01/14 17:43:38;;;;;;;8.63;6.90;;;;;;;0.49;100.00;97049.19;15289122;19;20022;-56
2024/01/14 17:49:02;;;;;;;10.10;7.18;;;;;;;0.46;100.00;97039.72;15287092;19;20366;-53
2024/01/14 17:54:27;;;;;;;10.05;7.15;;;;;;;0.44;100.00;97031.06;15280981;19;20019;-51
2024/01/14 17:59:55;;;;;;;9.00;6.75;;;;;;;0.44;100.00;97033.69;15281173;19;20109;-54
2024/01/14 18:05:20;;;;;;;8.07;6.30;;;;;;;0.41;100.00;97012.78;15285689;19;20010;-55
2024/01/14 18:10:44;;;;;;;7.93;6.35;;;;;;;0.41;100.00;97003.03;15282551;19;20019;-55
2024/01/14 18:16:12;;;;;;;8.57;6.70;;;;;;;0.38;100.00;96997.97;15286662;19;20090;-54
2024/01/14 18:21:37;;;;;;;7.85;6.22;;;;;;;0.37;100.00;96990.19;15285555;19;20014;-57
2024/01/14 18:27:03;;;;;;;7.43;6.00;;;;;;;0.38;100.00;96989.22;15275838;19;20025;-54
2024/01/14 18:32:30;;;;;;;8.23;6.38;;;;;;;0.38;100.00;96979.44;15282023;19;20026;-53
2024/01/14 18:37:55;;;;;;;8.02;6.30;;;;;;;0.40;100.00;96981.97;15282123;19;20027;-52
2024/01/14 18:43:20;;;;;;;8.07;5.50;;;;;;;0.39;100.00;96967.03;15291407;19;20025;-54
2024/01/14 18:48:48;;;;;;;7.10;5.50;;;;;;;0.41;100.00;96959.81;15303286;19;20010;-56
2024/01/14 18:54:14;;;;;;;9.25;5.97;;;;;;;0.44;100.00;96938.31;15294964;19;20381;-52
2024/01/14 18:59:40;;;;;;;6.80;5.15;;;;;;;0.48;100.00;96950.34;15293886;19;20689;-54
2024/01/14 19:05:07;;;;;;;6.32;5.15;;;;;;;0.52;100.00;96943.81;15295491;19;20074;-54
2024/01/14 19:10:33;;;;;;;6.93;5.50;;;;;;;0.52;100.00;96930.56;15296247;19;20367;-51
2024/01/14 19:16:04;;;;;;;7.53;5.10;;;;;;;0.52;100.00;96913.81;15299719;19;20475;-54
2024/01/14 19:21:32;;;;;;;6.30;4.53;;;;;;;0.51;100.00;96910.34;15294800;19;20015;-53
2024/01/14 19:26:56;;;;;;;6.32;4.82;;;;;;;0.52;100.00;96896.13;15291459;19;20010;-53
2024/01/14 19:32:21;;;;;;;6.47;4.80;;;;;;;0.53;100.00;96905.72;15288096;19;20050;-54
2024/01/14 19:37:49;;;;;;;7.43;4.60;;;;;;;0.54;100.00;96904.75;15295450;19;20027;-51
2024/01/14 19:43:14;;;;;;;5.93;4.55;;;;;;;0.57;100.00;96909.78;15289828;19;20022;-57
2024/01/14 19:48:38;;;;;;;5.85;4.40;;;;;;;0.53;100.00;96900.41;15293246;19;20024;-57
2024/01/14 19:54:06;;;;;;;5.97;4.88;;;;;;;0.52;100.00;96904.06;15296431;19;20018;-56
2024/01/14 19:59:30;;;;;;;6.85;5.15;;;;;;;0.52;100.00;96890.81;15295066;19;20031;-55
2024/01/14 20:04:55;;;;;;;6.20;4.38;;;;;;;0.52;100.00;96888.16;15290772;19;20026;-57
2024/01/14 20:10:22;;;;;;;5.30;4.18;;;;;;;0.54;100.00;96874.78;15291012;19;20836;-56
2024/01/14 20:15:55;;;;;;;6.25;4.38;;;;;;;0.54;100.00;96864.16;15290220;19;20479;-56
2024/01/14 20:21:21;;;;;;;5.75;4.22;;;;;;;0.53;100.00;96847.41;15291782;19;20026;-54
2024/01/14 20:26:49;;;;;;;5.28;4.13;;;;;;;0.52;100.00;96844.91;15291295;19;20022;-60
2024/01/14 20:32:15;;;;;;;6.10;4.35;;;;;;;0.53;100.00;96836.00;15306113;19;20035;-57
2024/01/14 20:37:40;;;;;;;6.15;4.45;;;;;;;0.50;100.00;96826.50;15292741;19;20405;-56
2024/01/14 20:43:07;;;;;;;5.30;4.10;;;;;;;0.50;100.00;96826.50;15291507;19;20722;-55
2024/01/14 20:48:32;;;;;;;5.40;4.00;;;;;;;0.49;100.00;96803.66;15284213;19;20352;-58
2024/01/14 20:53:56;;;;;;;6.28;4.50;;;;;;;0.48;100.00;96791.38;15295608;19;20082;-57
2024/01/14 20:59:24;;;;;;;4.45;3.63;;;;;;;0.49;100.00;96790.41;15289128;19;20014;-56
2024/01/14 21:04:50;;;;;;;4.75;3.75;;;;;;;0.50;100.00;96781.47;15288897;19;20007;-55
2024/01/14 21:10:16;;;;;;;6.10;4.15;;;;;;;0.55;100.00;96781.88;15286621;19;20434;-59
2024/01/14 21:15:44;;;;;;;5.57;3.78;;;;;;;0.56;100.00;96766.84;15289970;19;20022;-56
2024/01/14 21:21:15;;;;;;;4.57;3.45;;;;;;;0.58;100.00;96759.59;15292142;19;20022;-58
2024/01/14 21:26:40;;;;;;;4.43;3.70;;;;;;;0.61;100.00;96738.94;15291652;19;20014;-56
2024/01/14 21:32:09;;;;;;;3.80;3.40;;;;;;;0.61;100.00;96738.09;15287506;19;20010;-56
2024/01/14 21:37:34;;;;;;;4.13;3.70;;;;;;;0.62;100.00;96755.66;15293064;19;20500;-55
2024/01/14 21:42:58;;;;;;;6.22;4.13;;;;;;;0.57;100.00;96758.72;15291332;19;20078;-59
2024/01/14 21:48:25;;;;;;;5.70;4.40;;;;;;;0.54;100.00;96761.66;15284433;19;20089;-55
2024/01/14 21:53:51;;;;;;;4.85;4.00;;;;;;;0.55;100.00;96750.09;15293005;19;20605;-57
2024/01/14 21:59:16;;;;;;;5.72;4.32;;;;;;;0.49;100.00;96745.34;15306926;19;20490;-60
2024/01/14 22:04:43;;;;;;;4.88;3.80;;;;;;;0.47;100.00;96734.06;15285946;19;20341;-56
2024/01/14 22:10:08;;;;;;;4.82;3.90;;;;;;;0.47;100.00;96735.88;15283520;19;20382;-57
2024/01/14 22:15:40;;;;;;;4.30;3.30;;;;;;;0.45;100.00;96726.25;15285216;19;20508;-54
2024/01/14 22:21:08;;;;;;;5.22;4.05;;;;;;;0.46;100.00;96737.69;15287591;19;20024;-56
2024/01/14 22:26:33;;;;;;;5.32;4.30;;;;;;;0.45;100.00;96722.75;15286875;19;20050;-57
2024/01/14 22:32:00;;;;;;;4.70;3.80;;;;;;;0.45;100.00;96712.16;15285789;19;20082;-57
2024/01/14 22:37:30;;;;;;;4.57;3.70;;;;;;;0.41;100.00;96705.50;15286450;19;20022;-56
2024/01/14 22:42:56;;;;;;;5.90;4.05;;;;;;;0.42;100.00;96704.47;15277935;19;20018;-57
2024/01/14 22:48:21;;;;;;;5.07;3.90;;;;;;;0.39;100.00;96683.59;15275661;19;20014;-54
2024/01/14 22:53:50;;;;;;;5.03;3.90;;;;;;;0.37;100.00;96706.72;15283677;19;20032;-58
2024/01/14 22:59:15;;;;;;;6.22;3.90;;;;;;;0.34;100.00;96672.56;15281695;19;20035;-58
2024/01/14 23:04:40;;;;;;;5.45;4.15;;;;;;;0.33;100.00;96670.91;15281784;19;20026;-57
2024/01/14 23:10:07;;;;;;;5.05;4.00;;;;;;;0.33;100.00;96670.91;15283531;19;20086;-56
2024/01/14 23:15:38;;;;;;;5.65;4.10;;;;;;;0.30;100.00;96683.44;15275077;19;20027;-57
2024/01/14 23:21:04;;;;;;;5.63;4.28;;;;;;;0.26;100.00;96671.47;15281037;19;20029;-53
2024/01/14 23:26:32;;;;;;;9.02;4.20;;;;;;;0.24;100.00;96661.97;15290188;19;20014;-56
2024/01/14 23:31:57;;;;;;;5.40;4.00;;;;;;;0.21;100.00;96652.50;15298238;19;20085;-55
2024/01/14 23:37:21;;;;;;;5.32;4.20;;;;;;;0.19;100.00;96645.69;15300639;19;20094;-55
2024/01/14 23:42:51;;;;;;;6.50;4.18;;;;;;;0.16;100.00;96620.31;15296551;19;20021;-56
2024/01/14 23:48:16;;;;;;;5.38;3.88;;;;;;;0.17;100.00;96639.69;15289324;19;20018;-58
2024/01/14 23:53:41;;;;;;;5.93;4.35;;;;;;;0.17;100.00;96639.69;15297004;19;20740;-57
2024/01/14 23:59:08;;;;;;;6.15;4.40;;;;;;;0.15;100.00;96622.13;15290501;19;20077;-58
